| time (UTC) | temp F | wind direction | speed knots | gust knots | rain 1hr in | rain 24hr in | rain mn in | humidity % | barometer mb |
| 20260906174642 | 98 | 360 | 0.0 | 4.3 | 0.00 | 0.00 | 0.00 | 44 | 1012.7 |
| 20260906173031 | 98 | 360 | 1.7 | 5.2 | 0.00 | 0.00 | 0.00 | 47 | 1012.9 |
| 20260906171605 | 97 | 360 | 0.9 | 3.5 | 0.00 | 0.00 | 0.00 | 48 | 1013.1 |
| 20260906170023 | 97 | 360 | 0.9 | 5.2 | 0.00 | 0.00 | 0.00 | 51 | 1013.4 |
| 20260906164543 | 96 | 360 | 1.7 | 5.2 | 0.00 | 0.00 | 0.00 | 50 | 1013.5 |
| 20260906163019 | 95 | 360 | 4.3 | 7.8 | 0.00 | 0.00 | 0.00 | 53 | 1013.6 |
| 20260906161604 | 95 | 360 | 4.3 | 7.8 | 0.00 | 0.00 | 0.00 | 54 | 1013.6 |
| 20260906160037 | 94 | 360 | 0.9 | 7.8 | 0.00 | 0.00 | 0.00 | 56 | 1013.5 |
| 20260906154504 | 93 | 360 | 4.3 | 8.7 | 0.00 | 0.00 | 0.00 | 57 | 1013.4 |
| 20260906153106 | 91 | 360 | 0.9 | 7.0 | 0.00 | 0.00 | 0.00 | 61 | 1013.4 |
| 20260906151559 | 90 | 360 | 0.9 | 4.3 | 0.00 | 0.00 | 0.00 | 63 | 1013.5 |
| 20260906150114 | 89 | 360 | 2.6 | 4.3 | 0.00 | 0.00 | 0.00 | 65 | 1013.5 |
| 20260906144545 | 87 | 360 | 0.9 | 4.3 | 0.00 | 0.00 | 0.00 | 70 | 1013.6 |
| 20260906143055 | 85 | 360 | 0.9 | 4.3 | 0.00 | 0.00 | 0.00 | 71 | 1013.6 |
| 20260906141549 | 82 | 360 | 1.7 | 4.3 | 0.00 | 0.00 | 0.00 | 77 | 1013.4 |
| 20260906140025 | 79 | 360 | 0.9 | 3.5 | 0.00 | 0.00 | 0.00 | 84 | 1013.4 |
| 20260906134536 | 77 | 360 | 0.9 | 3.5 | 0.00 | 0.00 | 0.00 | 87 | 1013.2 |
| 20260906133114 | 74 | 360 | 0.9 | 3.5 | 0.00 | 0.00 | 0.00 | 90 | 1013.2 |
| 20260906131554 | 72 | 360 | 0.9 | 2.6 | 0.00 | 0.00 | 0.00 | 93 | 1013.2 |
| 20260906130016 | 71 | 360 | 0.0 | 0.9 | 0.00 | 0.00 | 0.00 | 93 | 1013.0 |
| 20260906124521 | 70 | 360 | 0.0 | 0.0 | 0.00 | 0.00 | 0.00 | 92 | 1012.8 |
| 20260906123048 | 70 | 360 | 0.0 | 0.9 | 0.00 | 0.00 | 0.00 | 92 | 1012.6 |
| 20260906121611 | 70 | 360 | 0.0 | 0.9 | 0.00 | 0.00 | 0.00 | 92 | 1012.7 |
| 20260906120013 | 70 | 360 | 0.0 | 0.9 | 0.00 | 0.00 | 0.00 | 91 | 1012.6 |
| 20260906114536 | 70 | 360 | 0.0 | 0.9 | 0.00 | 0.00 | 0.00 | 91 | 1012.6 |
| 20260906113059 | 70 | 360 | 0.0 | 1.7 | 0.00 | 0.00 | 0.00 | 91 | 1012.4 |
| 20260906111611 | 71 | 360 | 0.0 | 0.9 | 0.00 | 0.00 | 0.00 | 91 | 1012.4 |
| 20260906110046 | 71 | 360 | 0.0 | 0.9 | 0.00 | 0.00 | 0.00 | 91 | 1012.4 |
| 20260906104538 | 71 | 360 | 0.0 | 0.0 | 0.00 | 0.00 | 0.00 | 91 | 1012.3 |
| 20260906103013 | 71 | 360 | 0.0 | 0.9 | 0.00 | 0.00 | 0.00 | 90 | 1012.2 |
| 20260906101540 | 71 | 360 | 0.0 | 0.9 | 0.00 | 0.00 | 0.00 | 90 | 1012.2 |
| 20260906100006 | 72 | 360 | 0.0 | 0.9 | 0.00 | 0.00 | 0.00 | 90 | 1012.0 |
| 20260906094551 | 72 | 360 | 0.0 | 0.9 | 0.00 | 0.00 | 0.00 | 91 | 1012.0 |
| 20260906093047 | 72 | 360 | 0.0 | 0.9 | 0.00 | 0.00 | 0.00 | 91 | 1012.0 |
| 20260906091524 | 72 | 360 | 0.0 | 1.7 | 0.00 | 0.00 | 0.00 | 91 | 1011.8 |
| 20260906090026 | 72 | 360 | 1.7 | 2.6 | 0.00 | 0.00 | 0.00 | 91 | 1011.7 |
| 20260906084555 | 72 | 360 | 0.0 | 0.0 | 0.00 | 0.00 | 0.00 | 90 | 1011.6 |
| 20260906083051 | 72 | 104 | 0.0 | 0.9 | 0.00 | 0.00 | 0.00 | 90 | 1011.5 |
| 20260906081530 | 72 | 360 | 0.0 | 1.7 | 0.00 | 0.00 | 0.00 | 90 | 1011.6 |
| 20260906080041 | 72 | 360 | 0.0 | 1.7 | 0.00 | 0.00 | 0.00 | 89 | 1011.5 |
| 20260906074509 | 73 | 360 | 0.0 | 1.7 | 0.00 | 0.00 | 0.00 | 89 | 1011.5 |
| 20260906073048 | 73 | 360 | 0.0 | 1.7 | 0.00 | 0.00 | 0.00 | 89 | 1011.5 |
| 20260906070059 | 73 | 360 | 0.0 | 0.9 | 0.00 | 0.00 | 0.00 | 89 | 1011.6 |
| 20260906064601 | 73 | 360 | 0.0 | 1.7 | 0.00 | 0.00 | 0.00 | 88 | 1011.7 |
| 20260906063048 | 73 | 360 | 0.0 | 0.9 | 0.00 | 0.00 | 0.00 | 88 | 1011.8 |
| 20260906061546 | 74 | 360 | 0.0 | 0.9 | 0.00 | 0.00 | 0.00 | 88 | 1011.9 |
| 20260906060045 | 74 | 360 | 0.0 | 0.9 | 0.00 | 0.00 | 0.00 | 87 | 1012.1 |
| 20260906054506 | 75 | 360 | 0.0 | 0.9 | 0.00 | 0.00 | 0.00 | 87 | 1012.1 |
| 20260906053058 | 75 | 360 | 0.0 | 0.9 | 0.00 | 0.00 | 0.00 | 86 | 1012.1 |
| 20260906051511 | 75 | 360 | 0.0 | 1.7 | 0.00 | 0.00 | 0.00 | 85 | 1012.1 |
| 20260906050004 | 76 | 360 | 0.0 | 0.9 | 0.00 | 0.00 | 0.00 | 85 | 1012.0 |
| 20260906044532 | 76 | 360 | 0.0 | 0.0 | 0.00 | 0.00 | 0.00 | 83 | 1012.0 |
| 20260906043020 | 76 | 360 | 0.0 | 0.9 | 0.00 | 0.00 | 0.00 | 84 | 1012.0 |
| 20260906041517 | 77 | 360 | 0.0 | 0.9 | 0.00 | 0.00 | 0.00 | 82 | 1012.0 |
| 20260906040136 | 77 | 360 | 0.0 | 0.9 | 0.00 | 0.00 | 0.00 | 82 | 1011.9 |
| 20260906034529 | 78 | 360 | 0.0 | 0.9 | 0.00 | 0.00 | 0.00 | 80 | 1011.8 |
| 20260906033100 | 78 | 360 | 0.0 | 0.9 | 0.00 | 0.00 | 0.00 | 81 | 1011.7 |
| 20260906031531 | 79 | 360 | 0.0 | 1.7 | 0.00 | 0.00 | 0.00 | 79 | 1011.6 |
| 20260906030105 | 80 | 360 | 0.0 | 0.9 | 0.00 | 0.00 | 0.00 | 77 | 1011.2 |
| 20260906024508 | 81 | 360 | 0.0 | 0.9 | 0.00 | 0.00 | 0.00 | 77 | 1011.2 |
| 20260906023023 | 82 | 360 | 0.0 | 0.9 | 0.00 | 0.00 | 0.00 | 74 | 1011.0 |
| 20260906021559 | 83 | 360 | 0.0 | 0.9 | 0.00 | 0.00 | 0.00 | 73 | 1010.9 |
| 20260906020009 | 84 | 360 | 0.0 | 0.0 | 0.00 | 0.00 | 0.00 | 70 | 1010.6 |
| 20260906014606 | 85 | 360 | 0.0 | 0.9 | 0.00 | 0.00 | 0.00 | 67 | 1010.3 |
| 20260906013007 | 87 | 360 | 0.0 | 0.9 | 0.00 | 0.00 | 0.00 | 64 | 1010.2 |
| 20260906011521 | 88 | 360 | 0.0 | 0.0 | 0.00 | 0.00 | 0.00 | 62 | 1010.0 |
| 20260906010059 | 89 | 360 | 0.0 | 3.5 | 0.00 | 0.00 | 0.00 | 59 | 1009.9 |
| 20260906004604 | 92 | 360 | 0.0 | 0.9 | 0.00 | 0.00 | 0.00 | 58 | 1009.8 |
| 20260906003013 | 94 | 360 | 0.0 | 0.9 | 0.00 | 0.00 | 0.00 | 55 | 1009.8 |
| 20260906001525 | 96 | 360 | 0.0 | 0.0 | 0.00 | 0.00 | 0.00 | 48 | 1009.7 |
| 20260906000050 | 98 | 360 | 0.0 | 0.9 | 0.00 | 0.00 | 0.00 | 46 | 1009.9 |
| 20260905234608 | 98 | 360 | 0.0 | 1.7 | 0.00 | 0.00 | 0.00 | 43 | 1009.8 |
| 20260905233059 | 99 | 360 | 1.7 | 2.6 | 0.00 | 0.00 | 0.00 | 41 | 1009.7 |
| 20260905231605 | 99 | 360 | 1.7 | 3.5 | 0.00 | 0.00 | 0.00 | 39 | 1009.7 |
| 20260905230027 | 100 | 360 | 2.6 | 4.3 | 0.00 | 0.00 | 0.00 | 38 | 1009.7 |
| 20260905224608 | 100 | 360 | 1.7 | 4.3 | 0.00 | 0.00 | 0.00 | 39 | 1009.8 |
| 20260905223102 | 101 | 360 | 0.0 | 4.3 | 0.00 | 0.00 | 0.00 | 40 | 1009.8 |
| 20260905221541 | 101 | 360 | 1.7 | 5.2 | 0.00 | 0.00 | 0.00 | 36 | 1009.9 |
| 20260905220031 | 101 | 360 | 1.7 | 4.3 | 0.00 | 0.00 | 0.00 | 37 | 1010.0 |
| 20260905214601 | 101 | 360 | 1.7 | 5.2 | 0.00 | 0.00 | 0.00 | 37 | 1010.1 |
| 20260905213055 | 101 | 360 | 3.5 | 9.6 | 0.00 | 0.00 | 0.00 | 37 | 1010.2 |
| 20260905211538 | 102 | 360 | 2.6 | 7.8 | 0.00 | 0.00 | 0.00 | 36 | 1010.3 |
| 20260905210101 | 102 | 360 | 1.7 | 4.3 | 0.00 | 0.00 | 0.00 | 36 | 1010.5 |
| 20260905204513 | 102 | 360 | 0.9 | 4.3 | 0.00 | 0.00 | 0.00 | 37 | 1010.6 |
| 20260905203049 | 101 | 360 | 2.6 | 7.8 | 0.00 | 0.00 | 0.00 | 39 | 1010.9 |
| 20260905201548 | 101 | 360 | 1.7 | 7.0 | 0.00 | 0.00 | 0.00 | 39 | 1011.1 |
| 20260905200109 | 102 | 15 | 2.6 | 7.0 | 0.00 | 0.00 | 0.00 | 37 | 1011.3 |
| 20260905194608 | 102 | 360 | 2.6 | 7.8 | 0.00 | 0.00 | 0.00 | 38 | 1011.4 |
| 20260905193002 | 102 | 360 | 0.9 | 5.2 | 0.00 | 0.00 | 0.00 | 38 | 1011.6 |
| 20260905191519 | 101 | 360 | 2.6 | 7.0 | 0.00 | 0.00 | 0.00 | 38 | 1011.8 |
| 20260905190021 | 101 | 360 | 0.9 | 3.5 | 0.00 | 0.00 | 0.00 | 40 | 1012.0 |
| 20260905184525 | 100 | 360 | 1.7 | 5.2 | 0.00 | 0.00 | 0.00 | 40 | 1012.1 |
| 20260905183011 | 100 | 360 | 2.6 | 5.2 | 0.00 | 0.00 | 0.00 | 43 | 1012.3 |
| 20260905181541 | 99 | 360 | 3.5 | 5.2 | 0.00 | 0.00 | 0.00 | 41 | 1012.5 |
| 20260905180103 | 98 | 360 | 0.9 | 3.5 | 0.00 | 0.00 | 0.00 | 43 | 1012.7 |